createdAt,value
2019-03-28T00:01:44.966Z,53.15
2019-03-28T00:04:17.202Z,53.36
2019-03-28T00:06:49.179Z,53.35
2019-03-28T00:09:21.527Z,53.53
2019-03-28T00:11:53.663Z,54.04
2019-03-28T00:14:25.527Z,54.04
2019-03-28T00:16:58.159Z,53.95
2019-03-28T00:19:31.186Z,54.21
2019-03-28T00:22:05.532Z,55.21
2019-03-28T00:24:49.519Z,54.57
2019-03-28T00:27:21.633Z,54.42
2019-03-28T00:29:53.387Z,55.18
2019-03-28T00:32:26.364Z,55.10
2019-03-28T00:34:58.203Z,54.60
2019-03-28T00:37:31.048Z,54.88
2019-03-28T00:40:03.241Z,54.64
2019-03-28T00:42:36.156Z,54.87
2019-03-28T00:45:08.746Z,55.06
2019-03-28T00:47:40.823Z,54.92
2019-03-28T00:50:14.053Z,54.99
2019-03-28T00:52:45.876Z,55.17
2019-03-28T00:55:18.020Z,55.23
2019-03-28T00:57:49.911Z,55.67
2019-03-28T01:00:22.394Z,55.50
2019-03-28T01:02:54.214Z,55.18
2019-03-28T01:05:26.502Z,54.99
2019-03-28T01:07:58.375Z,55.04
2019-03-28T01:10:31.619Z,55.25
2019-03-28T01:13:03.422Z,55.83
2019-03-28T01:15:36.215Z,55.43
2019-03-28T01:18:08.137Z,55.58
2019-03-28T01:20:39.911Z,55.44
2019-03-28T01:23:11.804Z,55.93
2019-03-28T01:25:43.914Z,55.70
2019-03-28T01:28:16.372Z,56.01
2019-03-28T01:30:48.670Z,55.74
2019-03-28T01:33:20.860Z,56.03
2019-03-28T01:35:53.163Z,55.87
2019-03-28T01:38:25.016Z,55.80
2019-03-28T01:40:58.447Z,55.86
2019-03-28T01:43:31.315Z,56.28
2019-03-28T01:46:03.176Z,55.99
2019-03-28T01:48:35.274Z,56.13
2019-03-28T01:51:07.334Z,55.81
2019-03-28T01:53:39.379Z,56.51
2019-03-28T01:56:11.561Z,56.60
2019-03-28T01:58:43.372Z,55.89
2019-03-28T02:01:15.308Z,55.45
2019-03-28T02:03:47.114Z,55.39
2019-03-28T02:06:18.902Z,55.33
2019-03-28T02:08:50.728Z,55.30
2019-03-28T02:11:23.499Z,55.51
2019-03-28T02:13:56.302Z,55.35
2019-03-28T02:16:28.511Z,55.28
2019-03-28T02:19:01.323Z,55.78
2019-03-28T02:21:33.097Z,55.86
2019-03-28T02:24:05.003Z,55.99
2019-03-28T02:26:37.568Z,56.70
2019-03-28T02:29:09.781Z,56.60
2019-03-28T02:31:43.124Z,56.17
2019-03-28T02:34:15.027Z,56.34
2019-03-28T02:36:46.976Z,56.70
2019-03-28T02:39:18.804Z,56.70
2019-03-28T02:41:50.700Z,56.59
2019-03-28T02:44:22.727Z,56.58
2019-03-28T02:46:54.500Z,56.35
2019-03-28T02:49:26.631Z,56.07
2019-03-28T02:51:58.616Z,56.37
2019-03-28T02:54:31.618Z,56.39
2019-03-28T02:57:03.715Z,57.05
2019-03-28T02:59:35.495Z,56.75
2019-03-28T03:02:07.961Z,56.70
2019-03-28T03:04:41.205Z,56.95
2019-03-28T03:07:13.153Z,57.51
2019-03-28T03:09:45.263Z,57.42
2019-03-28T03:12:17.216Z,57.33
2019-03-28T03:14:49.295Z,56.96
2019-03-28T03:17:21.836Z,56.79
2019-03-28T03:19:53.631Z,56.47
2019-03-28T03:22:25.418Z,56.35
2019-03-28T03:24:57.580Z,56.01
2019-03-28T03:27:29.432Z,56.12
2019-03-28T03:30:03.615Z,56.29
2019-03-28T03:32:35.255Z,56.31
2019-03-28T03:35:08.272Z,56.67
2019-03-28T03:37:40.116Z,56.65
2019-03-28T03:40:12.624Z,56.61
2019-03-28T03:42:44.410Z,56.08
2019-03-28T03:45:16.796Z,56.33
2019-03-28T03:47:48.924Z,56.40
2019-03-28T03:50:30.942Z,56.99
2019-03-28T03:53:02.816Z,57.62
2019-03-28T03:55:35.183Z,57.40
2019-03-28T03:58:15.599Z,57.75
2019-03-28T04:00:41.282Z,57.40
2019-03-28T04:03:13.761Z,57.36
2019-03-28T04:05:46.066Z,57.57
2019-03-28T04:08:18.116Z,57.79
2019-03-28T04:10:49.945Z,57.27
2019-03-28T04:13:21.979Z,57.73
2019-03-28T04:15:53.825Z,57.17
2019-03-28T04:18:25.959Z,57.00
2019-03-28T04:20:57.853Z,56.81
2019-03-28T04:23:29.923Z,57.73
2019-03-28T04:26:03.384Z,57.43
2019-03-28T04:28:36.038Z,57.42
2019-03-28T04:31:08.164Z,57.23
2019-03-28T04:33:40.241Z,57.43
2019-03-28T04:36:12.028Z,57.23
2019-03-28T04:38:43.847Z,57.39
2019-03-28T04:41:15.638Z,57.22
2019-03-28T04:43:47.730Z,57.35
2019-03-28T04:46:19.798Z,57.67
2019-03-28T04:48:52.463Z,58.21
2019-03-28T04:51:24.773Z,58.00
2019-03-28T04:53:56.909Z,57.82
2019-03-28T04:56:28.726Z,57.61
2019-03-28T04:59:02.017Z,57.46
2019-03-28T05:01:35.296Z,57.63
2019-03-28T05:04:07.482Z,57.72
2019-03-28T05:06:39.351Z,57.77
2019-03-28T05:09:11.500Z,57.91
2019-03-28T05:11:43.328Z,58.21
2019-03-28T05:14:15.581Z,57.99
2019-03-28T05:16:47.387Z,57.99
2019-03-28T05:19:19.215Z,58.04
2019-03-28T05:21:51.418Z,57.75
2019-03-28T05:24:25.493Z,58.40
2019-03-28T05:26:57.122Z,57.67
2019-03-28T05:29:29.123Z,57.66
2019-03-28T05:32:02.076Z,58.00
2019-03-28T05:34:34.544Z,58.29
2019-03-28T05:37:06.424Z,58.13
2019-03-28T05:39:38.457Z,58.06
2019-03-28T05:42:10.265Z,58.08
2019-03-28T05:44:42.448Z,58.10
2019-03-28T05:47:14.471Z,58.27
2019-03-28T05:49:46.252Z,58.07
2019-03-28T05:52:18.051Z,57.88
2019-03-28T05:54:50.181Z,57.74
2019-03-28T05:57:22.152Z,57.85
2019-03-28T05:59:54.923Z,57.79
2019-03-28T06:02:26.711Z,57.99
2019-03-28T06:05:00.452Z,58.10
2019-03-28T06:07:32.609Z,58.19
2019-03-28T06:10:04.827Z,58.53
2019-03-28T06:12:36.782Z,58.47
2019-03-28T06:15:09.264Z,58.71
2019-03-28T06:17:41.137Z,58.88
2019-03-28T06:20:13.531Z,58.87
2019-03-28T06:22:45.738Z,58.26
2019-03-28T06:25:18.613Z,58.09
2019-03-28T06:27:50.404Z,58.51
2019-03-28T06:30:23.042Z,58.46
2019-03-28T06:32:54.915Z,58.50
2019-03-28T06:35:26.692Z,58.43
2019-03-28T06:37:58.687Z,58.46
2019-03-28T06:40:31.455Z,58.17
2019-03-28T06:43:04.677Z,58.20
2019-03-28T06:45:36.815Z,58.36
2019-03-28T06:48:08.969Z,58.11
2019-03-28T06:50:41.850Z,58.66
2019-03-28T06:53:13.883Z,58.52
2019-03-28T06:55:45.682Z,58.80
2019-03-28T06:58:17.476Z,58.83
2019-03-28T07:00:49.620Z,58.63
2019-03-28T07:03:21.457Z,58.36
2019-03-28T07:05:53.250Z,59.07
2019-03-28T07:08:26.076Z,58.81
2019-03-28T07:10:58.296Z,58.25
2019-03-28T07:13:30.060Z,58.39
2019-03-28T07:16:02.498Z,57.83
2019-03-28T07:18:34.301Z,57.95
2019-03-28T07:21:06.378Z,57.61
2019-03-28T07:23:39.051Z,57.47
2019-03-28T07:26:10.934Z,57.19
2019-03-28T07:28:42.711Z,57.27
2019-03-28T07:31:14.764Z,56.58
2019-03-28T07:33:46.645Z,57.24
2019-03-28T07:36:18.613Z,56.23
2019-03-28T07:38:51.329Z,55.97
2019-03-28T07:41:23.145Z,55.23
2019-03-28T07:43:55.308Z,54.91
2019-03-28T07:46:27.214Z,54.46
2019-03-28T07:48:59.449Z,54.25
2019-03-28T07:51:32.277Z,53.53
2019-03-28T07:54:05.446Z,53.09
2019-03-28T07:56:37.507Z,53.34
2019-03-28T07:59:09.614Z,53.31
2019-03-28T08:01:41.784Z,52.75
2019-03-28T08:04:14.006Z,52.28
2019-03-28T08:06:49.950Z,52.21
2019-03-28T08:09:20.018Z,52.10
2019-03-28T08:11:51.905Z,51.90
2019-03-28T08:14:24.171Z,51.44
2019-03-28T08:16:56.232Z,51.26
2019-03-28T08:19:28.277Z,50.78
2019-03-28T08:22:00.252Z,50.83
2019-03-28T08:24:33.138Z,50.69
2019-03-28T08:27:06.511Z,49.59
2019-03-28T08:29:39.131Z,48.97
2019-03-28T08:32:14.953Z,48.37
2019-03-28T08:34:47.177Z,47.97
2019-03-28T08:37:19.690Z,49.00
2019-03-28T08:39:51.561Z,48.92
2019-03-28T08:42:23.377Z,49.28
2019-03-28T08:44:55.249Z,48.00
2019-03-28T08:47:27.091Z,47.72
2019-03-28T08:49:59.239Z,47.96
2019-03-28T08:52:32.287Z,47.32
2019-03-28T08:55:08.350Z,46.83
2019-03-28T08:57:39.548Z,46.46
2019-03-28T09:00:11.851Z,46.15
2019-03-28T09:02:43.667Z,46.28
2019-03-28T09:05:15.656Z,46.39
2019-03-28T09:07:47.853Z,45.36
2019-03-28T09:10:19.824Z,44.58
2019-03-28T09:12:55.217Z,43.95
2019-03-28T09:15:27.331Z,43.11
2019-03-28T09:18:00.339Z,43.90
2019-03-28T09:20:32.859Z,44.17
2019-03-28T09:23:04.997Z,43.81
2019-03-28T09:25:36.785Z,43.81
2019-03-28T09:28:08.590Z,44.28
2019-03-28T09:30:48.690Z,42.61
2019-03-28T09:33:15.829Z,42.79
2019-03-28T09:35:47.648Z,43.10
2019-03-28T09:38:19.502Z,42.73
2019-03-28T09:40:51.427Z,42.98
2019-03-28T09:43:23.315Z,43.26
2019-03-28T09:45:56.215Z,42.98
2019-03-28T09:48:28.025Z,42.96
2019-03-28T09:51:00.462Z,42.23
2019-03-28T09:53:32.643Z,43.03
2019-03-28T09:56:04.739Z,43.07
2019-03-28T09:58:36.635Z,42.42
2019-03-28T10:01:08.575Z,42.15
2019-03-28T10:03:40.467Z,41.92
2019-03-28T10:06:12.292Z,42.02
2019-03-28T10:08:44.175Z,41.37
2019-03-28T10:11:16.468Z,41.55
2019-03-28T10:13:48.365Z,41.63
2019-03-28T10:16:20.201Z,41.62
2019-03-28T10:18:52.172Z,41.55
2019-03-28T10:21:24.322Z,40.93
2019-03-28T10:23:56.229Z,40.86
2019-03-28T10:26:28.039Z,41.19
2019-03-28T10:29:00.265Z,40.54
2019-03-28T10:31:32.960Z,40.78
2019-03-28T10:34:04.930Z,41.41
2019-03-28T10:36:36.733Z,41.26
2019-03-28T10:39:10.316Z,42.12
2019-03-28T10:41:42.826Z,42.19
2019-03-28T10:44:15.072Z,41.28
2019-03-28T10:46:47.293Z,39.92
2019-03-28T10:49:19.224Z,39.88
2019-03-28T10:51:51.159Z,40.69
2019-03-28T10:54:25.591Z,40.57
2019-03-28T10:56:58.058Z,40.85
2019-03-28T10:59:31.093Z,40.43
2019-03-28T11:02:02.999Z,39.82
2019-03-28T11:04:35.984Z,40.74
2019-03-28T11:07:07.954Z,40.09
2019-03-28T11:09:40.072Z,40.98
2019-03-28T11:12:11.988Z,40.40
2019-03-28T11:14:46.258Z,40.51
2019-03-28T11:17:17.444Z,40.48
2019-03-28T11:19:49.753Z,40.11
2019-03-28T11:22:22.218Z,39.86
2019-03-28T11:24:54.142Z,40.98
2019-03-28T11:27:25.977Z,41.13
2019-03-28T11:29:59.542Z,40.93
2019-03-28T11:32:35.772Z,40.87
2019-03-28T11:35:07.050Z,41.74
2019-03-28T11:37:39.168Z,41.04
2019-03-28T11:40:12.180Z,40.60
2019-03-28T11:42:44.559Z,40.50
2019-03-28T11:45:16.554Z,40.24
2019-03-28T11:47:48.399Z,40.49
2019-03-28T11:50:20.410Z,39.80
2019-03-28T11:52:52.251Z,39.73
2019-03-28T11:55:24.200Z,39.55
2019-03-28T11:57:56.598Z,38.97
2019-03-28T12:00:29.507Z,39.28
2019-03-28T12:03:03.463Z,39.47
2019-03-28T12:05:35.645Z,40.34
2019-03-28T12:08:08.656Z,38.52
2019-03-28T12:10:41.033Z,39.04
2019-03-28T12:13:13.219Z,39.21
2019-03-28T12:15:45.054Z,39.01
2019-03-28T12:18:17.153Z,39.93
2019-03-28T12:20:49.703Z,38.45
2019-03-28T12:23:22.393Z,38.22
2019-03-28T12:25:55.322Z,38.74
2019-03-28T12:28:27.818Z,39.86
2019-03-28T12:31:00.017Z,38.63
2019-03-28T12:33:33.362Z,40.12
2019-03-28T12:36:05.224Z,39.29
2019-03-28T12:38:37.372Z,39.46
2019-03-28T12:41:09.376Z,39.53
2019-03-28T12:43:41.659Z,39.50
2019-03-28T12:46:13.936Z,39.58
2019-03-28T12:48:45.754Z,39.72
2019-03-28T12:51:17.603Z,39.92
2019-03-28T12:53:49.447Z,40.00
2019-03-28T12:56:21.847Z,40.36
2019-03-28T12:58:53.736Z,39.73
2019-03-28T13:01:25.589Z,39.80
2019-03-28T13:03:57.394Z,39.94
2019-03-28T13:06:29.560Z,40.46
2019-03-28T13:09:01.820Z,39.87
2019-03-28T13:11:35.564Z,39.14
2019-03-28T13:14:07.725Z,39.90
2019-03-28T13:16:39.595Z,39.45
2019-03-28T13:19:11.458Z,39.90
2019-03-28T13:21:43.576Z,40.17
2019-03-28T13:24:16.029Z,40.60
2019-03-28T13:26:47.873Z,39.80
2019-03-28T13:29:19.744Z,40.72
2019-03-28T13:31:51.734Z,41.79
2019-03-28T13:34:24.309Z,42.41
2019-03-28T13:36:56.403Z,41.85
2019-03-28T13:39:28.703Z,41.70
2019-03-28T13:42:00.721Z,42.00
2019-03-28T13:44:33.584Z,42.40
2019-03-28T13:47:06.557Z,42.61
2019-03-28T13:49:39.087Z,42.25
2019-03-28T13:52:11.280Z,42.18
2019-03-28T13:54:43.428Z,42.72
2019-03-28T13:57:15.370Z,42.50
2019-03-28T13:59:47.534Z,42.68
2019-03-28T14:02:19.387Z,42.46
2019-03-28T14:04:51.249Z,42.28
2019-03-28T14:07:23.211Z,42.11
2019-03-28T14:09:55.337Z,42.05
2019-03-28T14:12:27.551Z,42.40
2019-03-28T14:14:59.393Z,42.66
2019-03-28T14:17:34.718Z,42.10
2019-03-28T14:20:06.044Z,41.93
2019-03-28T14:22:39.316Z,41.94
2019-03-28T14:25:11.335Z,43.51
2019-03-28T14:27:43.434Z,42.62
2019-03-28T14:30:15.637Z,42.29
2019-03-28T14:32:53.409Z,42.78
2019-03-28T14:35:21.003Z,42.80
2019-03-28T14:37:53.113Z,41.95
2019-03-28T14:40:24.955Z,42.39
2019-03-28T14:42:57.041Z,42.25
2019-03-28T14:45:29.309Z,43.73
2019-03-28T14:48:01.464Z,42.68
2019-03-28T14:50:38.803Z,43.21
2019-03-28T14:53:11.029Z,42.42
2019-03-28T14:55:43.202Z,42.85
2019-03-28T14:58:15.111Z,43.40
2019-03-28T15:00:55.141Z,44.16
2019-03-28T15:03:27.703Z,44.73
2019-03-28T15:06:00.729Z,43.93
2019-03-28T15:08:33.542Z,44.30
2019-03-28T15:11:05.717Z,42.81
2019-03-28T15:13:40.335Z,43.07
2019-03-28T15:16:11.432Z,43.29
2019-03-28T15:18:44.619Z,43.78
2019-03-28T15:21:17.043Z,43.84
2019-03-28T15:23:49.503Z,44.30
2019-03-28T15:26:21.511Z,44.69
2019-03-28T15:28:53.687Z,44.58
2019-03-28T15:31:25.676Z,44.73
2019-03-28T15:34:00.388Z,44.73
2019-03-28T15:36:33.596Z,44.58
2019-03-28T15:39:07.790Z,45.19
2019-03-28T15:41:41.796Z,45.04
2019-03-28T15:44:14.049Z,45.15
2019-03-28T15:46:46.379Z,45.00
2019-03-28T15:49:18.363Z,45.04
2019-03-28T15:51:50.435Z,45.17
2019-03-28T15:54:22.641Z,45.50
2019-03-28T15:56:54.479Z,45.54
2019-03-28T15:59:26.395Z,46.05
2019-03-28T16:02:00.136Z,45.37
2019-03-28T16:04:31.971Z,45.15
2019-03-28T16:07:03.803Z,45.59
2019-03-28T16:09:36.363Z,45.72
2019-03-28T16:12:08.824Z,46.06
2019-03-28T16:14:40.729Z,45.83
2019-03-28T16:17:12.854Z,46.05
2019-03-28T16:19:45.701Z,46.50
2019-03-28T16:22:17.712Z,46.00
2019-03-28T16:24:49.550Z,46.32
2019-03-28T16:27:21.384Z,45.90
2019-03-28T16:29:54.388Z,45.68
2019-03-28T16:32:26.470Z,45.91
2019-03-28T16:34:58.426Z,46.75
2019-03-28T16:37:30.348Z,46.54
2019-03-28T16:40:02.293Z,46.44
2019-03-28T16:42:34.463Z,46.27
2019-03-28T16:45:08.005Z,46.39
2019-03-28T16:47:39.848Z,46.35
2019-03-28T16:50:12.511Z,46.49
2019-03-28T16:52:49.327Z,46.48
2019-03-28T16:55:26.509Z,46.72
2019-03-28T16:57:54.846Z,46.98
2019-03-28T17:00:38.279Z,46.53
2019-03-28T17:03:10.768Z,46.58
2019-03-28T17:05:46.947Z,47.10
2019-03-28T17:08:18.365Z,46.96
2019-03-28T17:10:53.121Z,47.33
2019-03-28T17:13:25.660Z,47.15
2019-03-28T17:15:57.585Z,47.83
2019-03-28T17:18:29.606Z,47.70
2019-03-28T17:21:01.574Z,47.59
2019-03-28T17:23:33.915Z,47.57
2019-03-28T17:26:06.115Z,47.85
2019-03-28T17:28:38.425Z,47.59
2019-03-28T17:31:10.671Z,47.77
2019-03-28T17:33:42.887Z,48.26
2019-03-28T17:36:15.039Z,47.93
2019-03-28T17:38:46.876Z,48.06
2019-03-28T17:41:18.806Z,48.19
2019-03-28T17:43:50.638Z,48.16
2019-03-28T17:46:23.123Z,48.28
2019-03-28T17:48:57.601Z,48.39
2019-03-28T17:51:28.697Z,48.37
2019-03-28T17:54:00.535Z,48.38
2019-03-28T17:56:32.392Z,48.38
2019-03-28T17:59:04.248Z,48.62
2019-03-28T18:01:36.131Z,48.58
2019-03-28T18:04:08.041Z,48.72
2019-03-28T18:06:40.520Z,48.90
2019-03-28T18:09:13.175Z,49.13
2019-03-28T18:11:45.352Z,49.15
2019-03-28T18:14:17.520Z,49.46
2019-03-28T18:16:49.418Z,49.46
2019-03-28T18:19:21.253Z,49.35
2019-03-28T18:22:03.422Z,49.54
2019-03-28T18:24:30.333Z,49.78
2019-03-28T18:27:00.965Z,50.08
2019-03-28T18:29:35.937Z,49.75
2019-03-28T18:32:07.977Z,49.56
2019-03-28T18:34:40.157Z,50.12
2019-03-28T18:37:12.088Z,50.03
2019-03-28T18:39:43.963Z,50.26
2019-03-28T18:42:16.284Z,50.38
2019-03-28T18:44:48.117Z,50.15
2019-03-28T18:47:20.346Z,50.37
2019-03-28T18:49:52.324Z,50.21
2019-03-28T18:52:24.473Z,50.10
2019-03-28T18:54:56.404Z,50.55
2019-03-28T18:57:29.208Z,51.16
2019-03-28T19:00:01.055Z,51.10
2019-03-28T19:02:34.058Z,51.20
2019-03-28T19:05:19.198Z,51.31
2019-03-28T19:07:41.001Z,51.41
2019-03-28T19:10:14.659Z,51.75
2019-03-28T19:12:47.815Z,51.87
2019-03-28T19:15:21.273Z,52.08
2019-03-28T19:17:53.113Z,52.26
2019-03-28T19:20:25.036Z,52.47
2019-03-28T19:22:56.938Z,52.72
2019-03-28T19:25:28.789Z,52.66
2019-03-28T19:28:00.955Z,52.52
2019-03-28T19:30:35.876Z,52.29
2019-03-28T19:33:07.831Z,52.13
2019-03-28T19:35:41.760Z,52.26
2019-03-28T19:38:14.417Z,52.31
2019-03-28T19:40:46.915Z,52.09
2019-03-28T19:43:20.742Z,52.36
2019-03-28T19:45:52.779Z,52.26
2019-03-28T19:48:24.957Z,52.49
2019-03-28T19:50:57.106Z,52.51
2019-03-28T19:53:29.021Z,52.87
2019-03-28T19:56:01.225Z,53.44
2019-03-28T19:58:35.202Z,53.32
2019-03-28T20:01:07.520Z,53.23
2019-03-28T20:03:39.535Z,53.22
2019-03-28T20:06:21.560Z,53.80
2019-03-28T20:08:45.302Z,53.59
2019-03-28T20:11:17.512Z,53.48
2019-03-28T20:13:50.039Z,53.32
2019-03-28T20:16:22.456Z,53.43
2019-03-28T20:18:54.743Z,53.82
2019-03-28T20:21:26.592Z,53.62
2019-03-28T20:23:58.877Z,53.58
2019-03-28T20:26:31.783Z,53.50
2019-03-28T20:29:04.706Z,53.85
2019-03-28T20:31:36.916Z,53.65
2019-03-28T20:34:08.874Z,53.60
2019-03-28T20:36:43.824Z,53.53
2019-03-28T20:39:16.202Z,53.56
2019-03-28T20:41:48.298Z,53.81
2019-03-28T20:44:20.265Z,53.54
2019-03-28T20:46:52.119Z,53.68
2019-03-28T20:49:24.011Z,53.33
2019-03-28T20:51:55.936Z,53.61
2019-03-28T20:54:28.156Z,53.51
2019-03-28T20:57:00.513Z,53.31
2019-03-28T20:59:32.807Z,53.47
2019-03-28T21:02:04.839Z,53.41
2019-03-28T21:04:37.285Z,53.52
2019-03-28T21:07:09.354Z,53.68
2019-03-28T21:09:42.099Z,53.62
2019-03-28T21:12:14.347Z,53.86
2019-03-28T21:14:46.337Z,53.82
2019-03-28T21:17:18.171Z,54.11
2019-03-28T21:19:50.462Z,53.95
2019-03-28T21:22:22.298Z,54.38
2019-03-28T21:24:54.218Z,54.11
2019-03-28T21:27:26.623Z,53.94
2019-03-28T21:29:58.606Z,53.80
2019-03-28T21:32:30.864Z,53.80
2019-03-28T21:35:03.009Z,53.77
2019-03-28T21:37:35.250Z,53.55
2019-03-28T21:40:07.753Z,53.54
2019-03-28T21:42:39.634Z,53.87
2019-03-28T21:45:11.904Z,53.78
2019-03-28T21:47:43.733Z,53.71
2019-03-28T21:50:15.948Z,53.75
2019-03-28T21:52:48.237Z,53.80
2019-03-28T21:55:20.015Z,53.84
2019-03-28T21:57:51.826Z,53.85
2019-03-28T22:00:23.799Z,53.96
2019-03-28T22:02:55.767Z,53.96
2019-03-28T22:05:28.931Z,54.04
2019-03-28T22:08:01.673Z,54.08
2019-03-28T22:10:34.818Z,54.21
2019-03-28T22:13:07.236Z,54.49
2019-03-28T22:15:39.245Z,54.55
2019-03-28T22:18:11.118Z,54.53
2019-03-28T22:20:43.706Z,54.55
2019-03-28T22:23:16.548Z,54.32
2019-03-28T22:25:48.464Z,54.28
2019-03-28T22:28:20.566Z,54.12
2019-03-28T22:30:52.384Z,54.20
2019-03-28T22:33:24.409Z,54.37
2019-03-28T22:35:56.533Z,54.40
2019-03-28T22:38:28.616Z,54.45
2019-03-28T22:41:02.454Z,54.64
2019-03-28T22:43:34.555Z,54.48
2019-03-28T22:46:06.775Z,54.95
2019-03-28T22:48:39.907Z,54.77
2019-03-28T22:51:12.260Z,54.63
2019-03-28T22:53:44.369Z,54.41
2019-03-28T22:56:17.477Z,54.93
2019-03-28T22:58:49.373Z,54.79
2019-03-28T23:01:21.336Z,55.06
2019-03-28T23:03:54.826Z,55.32
2019-03-28T23:06:27.043Z,55.23
2019-03-28T23:08:58.920Z,55.13
2019-03-28T23:11:31.360Z,55.20
2019-03-28T23:14:05.140Z,55.25
2019-03-28T23:16:37.343Z,55.62
2019-03-28T23:19:11.842Z,55.81
2019-03-28T23:21:42.843Z,55.79
2019-03-28T23:24:15.358Z,56.01
2019-03-28T23:26:47.151Z,55.75
2019-03-28T23:29:19.158Z,55.98
2019-03-28T23:31:50.962Z,55.55
2019-03-28T23:34:23.142Z,56.04
2019-03-28T23:36:56.443Z,55.91
2019-03-28T23:39:28.278Z,55.63
2019-03-28T23:42:00.347Z,55.68
2019-03-28T23:44:32.158Z,56.10
2019-03-28T23:47:04.772Z,56.34
2019-03-28T23:49:38.777Z,56.63
2019-03-28T23:52:11.100Z,56.78
2019-03-28T23:54:43.005Z,56.67
2019-03-28T23:57:14.843Z,57.04
2019-03-28T23:59:46.912Z,57.46
